Time;durP1;ratioP1;P1;durP2;ratioP2;P2;SDS_P1;SDS_P2;PMS_P1;PMS_P2;Temp;Humidity;BMP_temperature;BMP_pressure;BME280_temperature;BME280_humidity;BME280_pressure;Samples;Min_cycle;Max_cycle;Signal;HPM_P1;HPM_P2
2022/05/01 00:02:49;;;;;;;;;;;22.80;38.60;;;;;;6180050;28;19971;-50
2022/05/01 00:05:51;;;;;;;;;;;22.80;38.70;;;;;;6178260;28;20926;-49
2022/05/01 00:08:52;;;;;;;;;;;22.60;38.50;;;;;;6156883;28;20737;-47
2022/05/01 00:11:54;;;;;;;;;;;22.60;38.60;;;;;;6175694;28;20019;-48
2022/05/01 00:14:56;;;;;;;;;;;22.70;38.60;;;;;;6177148;28;19925;-49
2022/05/01 00:17:57;;;;;;;;;;;22.80;38.60;;;;;;6180139;28;20432;-48
2022/05/01 00:20:58;;;;;;;;;;;22.90;38.70;;;;;;6182742;28;20368;-48
2022/05/01 00:24:01;;;;;;;;;;;23.30;38.90;;;;;;6180278;28;19968;-48
2022/05/01 00:27:04;;;;;;;;;;;22.90;38.80;;;;;;6177736;28;19964;-49
2022/05/01 00:30:06;;;;;;;;;;;22.70;38.60;;;;;;6177666;28;20131;-48
2022/05/01 00:36:26;;;;;;;;;;;22.60;38.60;;;;;;6172232;28;20161;-47
2022/05/01 00:39:27;;;;;;;;;;;22.80;38.70;;;;;;6174830;28;20843;-48
2022/05/01 00:42:29;;;;;;;;;;;22.60;38.70;;;;;;6176349;28;20288;-48
2022/05/01 00:45:31;;;;;;;;;;;22.70;38.70;;;;;;6174902;28;19932;-46
2022/05/01 00:48:32;;;;;;;;;;;22.60;38.60;;;;;;6179836;28;20588;-47
2022/05/01 00:51:35;;;;;;;;;;;22.70;38.70;;;;;;6173190;28;20867;-48
2022/05/01 00:54:37;;;;;;;;;;;22.70;38.70;;;;;;6160745;28;19940;-47
2022/05/01 00:57:39;;;;;;;;;;;22.70;38.70;;;;;;6165367;28;19961;-49
2022/05/01 01:00:42;;;;;;;;;;;23.00;38.90;;;;;;6182858;28;20200;-49
2022/05/01 01:03:44;;;;;;;;;;;22.80;38.90;;;;;;6178396;28;20327;-48
2022/05/01 01:06:46;;;;;;;;;;;22.80;38.90;;;;;;6176554;28;20191;-51
2022/05/01 01:09:47;;;;;;;;;;;22.70;38.80;;;;;;6148311;28;20015;-50
2022/05/01 01:12:57;;;;;;;;;;;22.70;38.80;;;;;;6175082;28;20303;-46
2022/05/01 01:15:58;;;;;;;;;;;22.70;38.80;;;;;;6179491;28;19929;-51
2022/05/01 01:19:00;;;;;;;;;;;22.70;38.80;;;;;;6164855;28;20392;-47
2022/05/01 01:22:03;;;;;;;;;;;22.60;38.70;;;;;;6180136;28;20048;-49
2022/05/01 01:25:05;;;;;;;;;;;22.60;38.70;;;;;;6180889;28;20205;-49
2022/05/01 01:28:08;;;;;;;;;;;22.50;38.70;;;;;;6178125;28;20130;-50
2022/05/01 01:34:30;;;;;;;;;;;22.70;38.90;;;;;;6164822;28;19995;-49
2022/05/01 01:37:34;;;;;;;;;;;22.70;38.80;;;;;;6155752;28;20968;-46
2022/05/01 01:40:38;;;;;;;;;;;22.70;38.90;;;;;;6168559;28;19931;-48
2022/05/01 01:43:42;;;;;;;;;;;22.60;38.80;;;;;;6175137;28;19936;-48
2022/05/01 01:46:44;;;;;;;;;;;22.60;38.80;;;;;;6166631;28;19928;-49
2022/05/01 01:49:45;;;;;;;;;;;22.70;38.90;;;;;;6176504;28;20505;-49
2022/05/01 01:52:48;;;;;;;;;;;22.70;38.90;;;;;;6167100;28;20173;-48
2022/05/01 01:55:49;;;;;;;;;;;22.40;38.70;;;;;;6173185;28;19926;-49
2022/05/01 01:58:50;;;;;;;;;;;22.60;38.80;;;;;;6174953;28;20302;-47
2022/05/01 02:01:52;;;;;;;;;;;22.90;39.00;;;;;;6179421;28;19994;-48
2022/05/01 02:04:53;;;;;;;;;;;22.70;39.00;;;;;;6177647;28;20267;-47
2022/05/01 02:07:55;;;;;;;;;;;22.70;38.90;;;;;;6178576;28;20259;-48
2022/05/01 02:10:56;;;;;;;;;;;22.20;38.60;;;;;;6162752;28;20198;-47
2022/05/01 02:13:58;;;;;;;;;;;22.70;38.90;;;;;;6174078;28;20747;-49
2022/05/01 02:16:59;;;;;;;;;;;22.60;38.90;;;;;;6182809;28;19929;-48
2022/05/01 02:20:01;;;;;;;;;;;22.50;38.80;;;;;;6177442;28;20337;-51
2022/05/01 02:23:03;;;;;;;;;;;22.60;38.90;;;;;;6180555;28;20178;-49
2022/05/01 02:26:04;;;;;;;;;;;22.60;39.50;;;;;;6184608;28;19951;-47
2022/05/01 02:29:09;;;;;;;;;;;22.60;38.90;;;;;;6184401;28;19952;-49
2022/05/01 02:32:11;;;;;;;;;;;22.70;38.90;;;;;;6183766;28;19971;-49
2022/05/01 02:35:12;;;;;;;;;;;22.60;38.90;;;;;;6179394;28;19964;-52
2022/05/01 02:38:14;;;;;;;;;;;22.60;38.90;;;;;;6180151;28;20452;-47
2022/05/01 02:41:16;;;;;;;;;;;22.60;38.90;;;;;;6174975;28;20423;-47
2022/05/01 02:44:17;;;;;;;;;;;22.60;38.90;;;;;;6179731;28;19925;-47
2022/05/01 02:47:18;;;;;;;;;;;22.60;38.90;;;;;;6178715;28;20004;-49
2022/05/01 02:50:21;;;;;;;;;;;22.50;38.90;;;;;;6166483;28;19964;-49
2022/05/01 02:53:23;;;;;;;;;;;22.30;38.80;;;;;;6184927;28;19924;-47
2022/05/01 02:56:24;;;;;;;;;;;22.40;38.80;;;;;;6179366;28;19976;-49
2022/05/01 02:59:25;;;;;;;;;;;22.60;39.00;;;;;;6173171;28;20301;-49
2022/05/01 03:02:27;;;;;;;;;;;22.60;39.60;;;;;;6181838;28;20350;-47
2022/05/01 03:05:30;;;;;;;;;;;22.60;39.00;;;;;;6180077;28;19929;-50
2022/05/01 03:08:32;;;;;;;;;;;22.50;38.90;;;;;;6178205;28;19933;-46
2022/05/01 03:11:34;;;;;;;;;;;22.60;39.00;;;;;;6180935;28;19964;-50
2022/05/01 03:14:35;;;;;;;;;;;22.50;39.00;;;;;;6178874;28;19926;-50
2022/05/01 03:24:09;;;;;;;;;;;22.50;39.00;;;;;;6177125;28;20332;-47
2022/05/01 03:27:11;;;;;;;;;;;22.50;39.00;;;;;;6181343;28;19948;-47
2022/05/01 03:30:16;;;;;;;;;;;22.40;38.90;;;;;;6171123;28;20563;-48
2022/05/01 03:33:21;;;;;;;;;;;22.40;38.90;;;;;;6180542;28;20459;-47
2022/05/01 03:36:22;;;;;;;;;;;22.40;38.90;;;;;;6173994;28;20816;-46
2022/05/01 03:39:24;;;;;;;;;;;22.30;38.90;;;;;;6182900;28;20629;-47
2022/05/01 03:42:25;;;;;;;;;;;22.40;38.90;;;;;;6182249;28;20006;-50
2022/05/01 03:45:26;;;;;;;;;;;22.20;38.90;;;;;;6184273;28;19925;-49
2022/05/01 03:48:28;;;;;;;;;;;22.40;38.90;;;;;;6181836;28;20436;-46
2022/05/01 03:51:31;;;;;;;;;;;22.40;38.90;;;;;;6180698;28;19929;-50
2022/05/01 03:54:33;;;;;;;;;;;22.50;39.00;;;;;;6181427;28;19930;-47
2022/05/01 03:57:35;;;;;;;;;;;22.40;39.00;;;;;;6172193;28;20154;-48
2022/05/01 04:00:36;;;;;;;;;;;22.40;39.00;;;;;;6156685;28;19932;-48
2022/05/01 04:03:37;;;;;;;;;;;22.50;39.00;;;;;;6189436;28;20238;-48
2022/05/01 04:06:39;;;;;;;;;;;22.50;39.10;;;;;;6188889;28;20043;-47
2022/05/01 04:09:41;;;;;;;;;;;22.40;39.00;;;;;;6169388;28;20274;-50
2022/05/01 04:12:44;;;;;;;;;;;22.40;39.00;;;;;;6188033;28;19929;-49
2022/05/01 04:15:45;;;;;;;;;;;22.20;38.90;;;;;;6169545;28;20479;-47
2022/05/01 04:18:47;;;;;;;;;;;22.40;39.00;;;;;;6184418;28;20374;-49
2022/05/01 04:21:48;;;;;;;;;;;22.50;39.10;;;;;;6183165;28;19971;-49
2022/05/01 04:24:50;;;;;;;;;;;22.30;38.90;;;;;;6179356;28;19986;-47
2022/05/01 04:27:52;;;;;;;;;;;22.20;38.90;;;;;;6181711;28;19952;-49
2022/05/01 04:30:54;;;;;;;;;;;22.30;39.00;;;;;;6179421;28;20484;-47
2022/05/01 04:33:55;;;;;;;;;;;22.40;39.00;;;;;;6179340;28;20662;-49
2022/05/01 04:36:58;;;;;;;;;;;22.10;38.90;;;;;;6179927;28;19964;-48
2022/05/01 04:40:00;;;;;;;;;;;22.30;39.00;;;;;;6179706;28;19929;-48
2022/05/01 04:43:03;;;;;;;;;;;22.40;39.60;;;;;;6175516;28;20321;-48
2022/05/01 04:46:04;;;;;;;;;;;22.10;38.90;;;;;;6167310;28;19925;-51
2022/05/01 04:49:05;;;;;;;;;;;22.20;39.00;;;;;;6161059;28;19929;-47
2022/05/01 04:52:08;;;;;;;;;;;22.10;38.90;;;;;;6176960;28;20036;-46
2022/05/01 04:55:10;;;;;;;;;;;22.30;39.00;;;;;;6179486;28;20284;-56
2022/05/01 04:58:12;;;;;;;;;;;22.10;38.90;;;;;;6179326;28;20229;-50
2022/05/01 05:01:14;;;;;;;;;;;22.40;39.10;;;;;;6184771;28;20594;-47
2022/05/01 05:04:15;;;;;;;;;;;22.50;39.10;;;;;;6175315;28;20317;-49
2022/05/01 05:07:16;;;;;;;;;;;22.20;39.00;;;;;;6179520;28;20116;-47
2022/05/01 05:10:18;;;;;;;;;;;22.20;39.00;;;;;;6185618;28;19971;-49
2022/05/01 05:13:23;;;;;;;;;;;22.30;39.00;;;;;;6184403;28;19925;-48
2022/05/01 05:16:24;;;;;;;;;;;22.30;39.00;;;;;;6173779;28;20456;-51
2022/05/01 05:19:26;;;;;;;;;;;22.30;39.00;;;;;;6173889;28;20252;-47
2022/05/01 05:22:28;;;;;;;;;;;22.20;39.00;;;;;;6182082;28;20123;-48
2022/05/01 05:25:30;;;;;;;;;;;22.30;39.00;;;;;;6173185;28;20017;-49
2022/05/01 05:28:32;;;;;;;;;;;22.00;38.90;;;;;;6176272;28;20008;-48
2022/05/01 05:31:33;;;;;;;;;;;22.20;39.00;;;;;;6175567;28;20428;-47
2022/05/01 05:34:35;;;;;;;;;;;22.20;39.00;;;;;;6151578;28;19974;-47
2022/05/01 05:37:36;;;;;;;;;;;22.30;39.10;;;;;;6158802;28;20736;-49
2022/05/01 05:40:38;;;;;;;;;;;22.40;39.10;;;;;;6176450;28;19994;-49
2022/05/01 05:43:40;;;;;;;;;;;22.30;39.00;;;;;;6173549;28;20199;-48
2022/05/01 05:46:41;;;;;;;;;;;22.20;39.00;;;;;;6179960;28;19925;-49
2022/05/01 05:49:43;;;;;;;;;;;22.20;39.00;;;;;;6178543;28;19963;-47
2022/05/01 05:52:45;;;;;;;;;;;22.00;38.90;;;;;;6183185;28;20670;-47
2022/05/01 05:55:48;;;;;;;;;;;22.30;39.00;;;;;;6181768;28;19933;-49
2022/05/01 05:58:50;;;;;;;;;;;22.30;39.10;;;;;;6177640;28;20759;-47
2022/05/01 06:01:51;;;;;;;;;;;22.30;39.00;;;;;;6178669;28;19925;-47
2022/05/01 06:04:53;;;;;;;;;;;22.20;39.00;;;;;;6179125;28;19933;-49
2022/05/01 06:07:54;;;;;;;;;;;22.30;39.00;;;;;;6162284;28;20702;-51
2022/05/01 06:10:56;;;;;;;;;;;22.00;38.90;;;;;;6174764;28;19986;-51
2022/05/01 06:13:57;;;;;;;;;;;22.20;39.00;;;;;;6181321;28;19929;-46
2022/05/01 06:16:59;;;;;;;;;;;22.00;38.80;;;;;;6180390;28;20392;-49
2022/05/01 06:20:00;;;;;;;;;;;22.10;38.90;;;;;;6179436;28;20524;-47
2022/05/01 06:23:02;;;;;;;;;;;22.20;38.90;;;;;;6184261;28;20182;-48
2022/05/01 06:26:05;;;;;;;;;;;22.20;38.90;;;;;;6181010;28;20048;-49
2022/05/01 06:29:06;;;;;;;;;;;22.20;38.90;;;;;;6181102;28;20110;-48
2022/05/01 06:32:08;;;;;;;;;;;22.30;39.00;;;;;;6180902;28;20491;-47
2022/05/01 06:35:09;;;;;;;;;;;22.20;38.90;;;;;;6182912;28;20142;-49
2022/05/01 06:38:11;;;;;;;;;;;22.30;39.00;;;;;;6179961;28;19925;-50
2022/05/01 06:41:13;;;;;;;;;;;22.20;39.00;;;;;;6177912;28;20787;-50
2022/05/01 06:44:14;;;;;;;;;;;22.20;38.90;;;;;;6176808;28;20328;-49
2022/05/01 06:47:15;;;;;;;;;;;22.10;38.90;;;;;;6178048;28;20236;-46
2022/05/01 06:50:17;;;;;;;;;;;22.30;39.00;;;;;;6180699;28;20523;-48
2022/05/01 06:53:18;;;;;;;;;;;22.20;38.90;;;;;;6179357;28;20066;-46
2022/05/01 06:56:20;;;;;;;;;;;22.20;38.90;;;;;;6163718;28;20412;-48
2022/05/01 06:59:21;;;;;;;;;;;22.20;38.90;;;;;;6180564;28;19925;-49
2022/05/01 07:02:23;;;;;;;;;;;22.30;39.00;;;;;;6184042;28;20199;-47
2022/05/01 07:05:25;;;;;;;;;;;22.00;38.80;;;;;;6183742;28;19936;-48
2022/05/01 07:08:26;;;;;;;;;;;22.20;38.90;;;;;;6165019;28;20269;-48
2022/05/01 07:11:28;;;;;;;;;;;22.30;38.90;;;;;;6186589;28;20725;-50
2022/05/01 07:14:30;;;;;;;;;;;22.10;38.80;;;;;;6188055;28;20047;-50
2022/05/01 07:17:31;;;;;;;;;;;22.10;38.80;;;;;;6185125;28;19936;-49
2022/05/01 07:20:35;;;;;;;;;;;22.30;38.90;;;;;;6187193;28;20108;-49
2022/05/01 07:23:36;;;;;;;;;;;22.30;38.90;;;;;;6185857;28;19925;-49
2022/05/01 07:26:38;;;;;;;;;;;22.20;38.80;;;;;;6184225;28;20779;-50
2022/05/01 07:29:40;;;;;;;;;;;22.30;38.90;;;;;;6178590;28;19930;-48
2022/05/01 07:32:41;;;;;;;;;;;22.30;38.90;;;;;;6182395;28;20445;-50
2022/05/01 07:35:43;;;;;;;;;;;22.10;38.70;;;;;;6173936;28;19935;-48
2022/05/01 07:38:44;;;;;;;;;;;22.00;38.60;;;;;;6182880;28;20643;-47
2022/05/01 07:41:46;;;;;;;;;;;22.30;38.80;;;;;;6170975;28;20201;-50
2022/05/01 07:44:48;;;;;;;;;;;22.30;38.80;;;;;;6167217;28;20302;-49
2022/05/01 07:47:49;;;;;;;;;;;22.30;38.80;;;;;;6181333;28;20232;-47
2022/05/01 07:50:50;;;;;;;;;;;22.30;38.80;;;;;;6183883;28;19925;-48
2022/05/01 07:53:53;;;;;;;;;;;22.40;38.80;;;;;;6184359;28;19971;-48
2022/05/01 07:56:55;;;;;;;;;;;22.30;38.70;;;;;;6182776;28;19968;-48
2022/05/01 07:59:56;;;;;;;;;;;22.00;38.60;;;;;;6178727;28;19925;-47
2022/05/01 08:06:11;;;;;;;;;;;22.30;38.70;;;;;;6181045;28;19929;-48
2022/05/01 08:09:13;;;;;;;;;;;22.10;38.60;;;;;;6182003;28;20019;-47
2022/05/01 08:12:15;;;;;;;;;;;22.70;38.90;;;;;;6175408;28;20591;-50
2022/05/01 08:15:20;;;;;;;;;;;22.60;38.80;;;;;;6151344;28;19984;-50
2022/05/01 08:21:38;;;;;;;;;;;22.50;38.70;;;;;;6175161;28;19925;-48
2022/05/01 08:24:39;;;;;;;;;;;22.50;38.70;;;;;;6181726;28;19925;-49
2022/05/01 08:27:41;;;;;;;;;;;22.40;38.60;;;;;;6179690;28;20443;-51
2022/05/01 08:30:42;;;;;;;;;;;22.40;38.60;;;;;;6178220;28;20328;-57
2022/05/01 08:33:44;;;;;;;;;;;22.40;38.60;;;;;;6182218;28;19929;-48
2022/05/01 08:36:45;;;;;;;;;;;22.40;38.50;;;;;;6166736;28;20551;-48
2022/05/01 08:39:47;;;;;;;;;;;22.40;38.60;;;;;;6177042;28;19924;-49
2022/05/01 08:42:50;;;;;;;;;;;22.50;38.60;;;;;;6166207;28;19925;-48
2022/05/01 08:45:59;;;;;;;;;;;22.50;38.50;;;;;;6162374;28;20354;-48
2022/05/01 08:49:03;;;;;;;;;;;22.50;38.50;;;;;;6178851;28;20066;-49
2022/05/01 08:52:06;;;;;;;;;;;22.50;38.50;;;;;;6166309;28;20016;-47
2022/05/01 08:55:12;;;;;;;;;;;22.60;38.50;;;;;;6179237;28;19925;-48
2022/05/01 08:58:15;;;;;;;;;;;22.40;38.40;;;;;;6181089;28;19977;-49
2022/05/01 09:01:17;;;;;;;;;;;22.60;38.50;;;;;;6178747;28;19929;-48
2022/05/01 09:04:19;;;;;;;;;;;22.60;38.50;;;;;;6159843;28;19936;-48
2022/05/01 09:07:20;;;;;;;;;;;22.70;38.50;;;;;;6175688;28;20123;-53
2022/05/01 09:10:25;;;;;;;;;;;22.60;38.40;;;;;;6178692;28;19956;-50
2022/05/01 09:13:27;;;;;;;;;;;22.70;38.40;;;;;;6180345;28;20574;-49
2022/05/01 09:16:28;;;;;;;;;;;22.60;38.40;;;;;;6179430;28;20310;-49
2022/05/01 09:19:30;;;;;;;;;;;22.60;38.30;;;;;;6177202;28;20134;-47
2022/05/01 09:22:46;;;;;;;;;;;22.50;38.30;;;;;;6180010;28;20225;-46
2022/05/01 09:25:57;;;;;;;;;;;22.60;38.30;;;;;;6180562;28;19964;-49
2022/05/01 09:28:59;;;;;;;;;;;22.60;38.30;;;;;;6171707;28;19960;-47
2022/05/01 09:32:03;;;;;;;;;;;22.70;38.30;;;;;;6175742;28;20379;-48
2022/05/01 09:35:05;;;;;;;;;;;22.70;38.30;;;;;;6160211;28;20534;-46
2022/05/01 09:38:14;;;;;;;;;;;22.70;38.20;;;;;;6179451;28;20383;-51
2022/05/01 09:41:17;;;;;;;;;;;22.80;38.30;;;;;;6168509;28;20784;-47
2022/05/01 09:44:20;;;;;;;;;;;22.70;38.20;;;;;;6159455;28;19936;-49
2022/05/01 09:47:34;;;;;;;;;;;22.80;38.20;;;;;;6175420;28;20518;-47
2022/05/01 09:50:39;;;;;;;;;;;22.90;38.30;;;;;;6181081;28;20518;-47
2022/05/01 09:53:41;;;;;;;;;;;22.80;38.20;;;;;;6180804;28;20632;-49
2022/05/01 09:56:43;;;;;;;;;;;23.10;38.40;;;;;;6159549;28;19928;-50
2022/05/01 09:59:46;;;;;;;;;;;23.10;38.30;;;;;;6160589;28;20448;-48
2022/05/01 10:02:48;;;;;;;;;;;22.80;38.10;;;;;;6182364;28;20622;-49
2022/05/01 10:05:50;;;;;;;;;;;22.90;38.20;;;;;;6177043;28;19979;-50
2022/05/01 10:08:51;;;;;;;;;;;22.90;38.20;;;;;;6178261;28;19974;-48
2022/05/01 10:11:54;;;;;;;;;;;22.90;38.10;;;;;;6157837;28;20145;-49
2022/05/01 10:14:56;;;;;;;;;;;23.00;38.20;;;;;;6178005;28;20575;-48
2022/05/01 10:17:58;;;;;;;;;;;22.90;38.10;;;;;;6180055;28;19990;-48
2022/05/01 10:20:59;;;;;;;;;;;22.90;38.10;;;;;;6173227;28;20060;-46
2022/05/01 10:24:02;;;;;;;;;;;22.80;38.00;;;;;;6185117;28;20010;-47
2022/05/01 10:27:07;;;;;;;;;;;22.90;38.00;;;;;;6168486;28;20311;-48
2022/05/01 10:33:33;;;;;;;;;;;23.00;38.00;;;;;;6168117;28;19924;-50
2022/05/01 10:36:48;;;;;;;;;;;23.00;38.00;;;;;;6176508;28;20246;-49
2022/05/01 10:39:50;;;;;;;;;;;23.00;38.00;;;;;;6181198;28;20847;-47
2022/05/01 10:42:52;;;;;;;;;;;22.90;37.90;;;;;;6164858;28;20290;-48
2022/05/01 10:45:55;;;;;;;;;;;23.20;38.10;;;;;;6177166;28;20598;-48
2022/05/01 10:49:00;;;;;;;;;;;23.10;38.00;;;;;;6180708;28;19972;-53
2022/05/01 10:52:16;;;;;;;;;;;23.00;37.90;;;;;;6180618;28;20248;-50
2022/05/01 10:55:18;;;;;;;;;;;23.10;38.00;;;;;;6163405;28;20284;-49
2022/05/01 10:58:20;;;;;;;;;;;23.10;37.90;;;;;;6182165;28;19967;-51
2022/05/01 11:01:36;;;;;;;;;;;23.00;37.90;;;;;;6181385;28;19932;-48
2022/05/01 11:04:41;;;;;;;;;;;23.10;37.90;;;;;;6165915;28;19929;-49
2022/05/01 11:07:42;;;;;;;;;;;23.10;37.90;;;;;;6174068;28;19933;-50
2022/05/01 11:10:44;;;;;;;;;;;23.10;37.80;;;;;;6174658;28;19964;-48
2022/05/01 11:14:03;;;;;;;;;;;23.20;37.90;;;;;;6176604;28;20243;-50
2022/05/01 11:17:05;;;;;;;;;;;23.20;37.90;;;;;;6170954;28;20401;-53
2022/05/01 11:20:09;;;;;;;;;;;23.30;37.90;;;;;;6157756;28;19934;-51
2022/05/01 11:23:25;;;;;;;;;;;23.20;37.90;;;;;;6176465;28;20405;-47
2022/05/01 11:26:27;;;;;;;;;;;23.20;37.80;;;;;;6158673;28;20319;-47
2022/05/01 11:29:28;;;;;;;;;;;23.30;37.80;;;;;;6175469;28;20249;-48
2022/05/01 11:32:41;;;;;;;;;;;23.20;37.80;;;;;;6161974;28;20440;-51
2022/05/01 11:35:57;;;;;;;;;;;23.20;37.70;;;;;;6156159;28;20457;-47
2022/05/01 11:39:00;;;;;;;;;;;23.30;37.80;;;;;;6176716;28;19976;-48
2022/05/01 11:42:02;;;;;;;;;;;23.20;37.70;;;;;;6171044;28;20364;-49
2022/05/01 11:45:04;;;;;;;;;;;23.20;37.70;;;;;;6177528;28;20684;-49
2022/05/01 11:48:10;;;;;;;;;;;23.30;37.70;;;;;;6174890;28;20401;-49
2022/05/01 11:51:12;;;;;;;;;;;23.20;37.60;;;;;;6176959;28;20464;-54
2022/05/01 11:54:15;;;;;;;;;;;23.20;37.60;;;;;;6182908;28;19971;-51
2022/05/01 12:03:49;;;;;;;;;;;23.30;37.60;;;;;;6172266;28;20573;-50
2022/05/01 12:06:56;;;;;;;;;;;23.30;37.50;;;;;;6157600;28;19929;-50
2022/05/01 12:09:58;;;;;;;;;;;23.40;37.60;;;;;;6168864;28;19937;-50
2022/05/01 12:13:14;;;;;;;;;;;23.40;37.60;;;;;;6172837;28;20016;-49
2022/05/01 12:16:24;;;;;;;;;;;23.40;37.50;;;;;;6166205;28;20017;-49
2022/05/01 12:19:33;;;;;;;;;;;23.30;37.50;;;;;;6145175;28;20027;-48
2022/05/01 12:22:37;;;;;;;;;;;23.40;37.50;;;;;;6174133;28;19925;-48
2022/05/01 12:25:41;;;;;;;;;;;23.40;37.40;;;;;;6175150;28;19987;-49
2022/05/01 12:28:43;;;;;;;;;;;23.50;37.50;;;;;;6175556;28;19931;-49
2022/05/01 12:31:58;;;;;;;;;;;23.50;37.40;;;;;;6176234;28;20180;-47
2022/05/01 12:35:01;;;;;;;;;;;23.50;37.40;;;;;;6172194;28;20792;-48
2022/05/01 12:38:02;;;;;;;;;;;23.40;37.40;;;;;;6172481;28;20875;-50
2022/05/01 12:44:29;;;;;;;;;;;23.50;37.40;;;;;;6157562;28;19951;-47
2022/05/01 12:47:30;;;;;;;;;;;23.60;37.40;;;;;;6154857;28;19929;-49
2022/05/01 12:50:33;;;;;;;;;;;23.80;37.40;;;;;;6169847;28;19930;-48
2022/05/01 12:53:36;;;;;;;;;;;23.70;37.30;;;;;;6166941;28;20442;-48
2022/05/01 12:56:37;;;;;;;;;;;23.60;37.30;;;;;;6152659;28;19929;-48
2022/05/01 12:59:39;;;;;;;;;;;23.70;37.30;;;;;;6168300;28;20017;-49
2022/05/01 13:02:41;;;;;;;;;;;23.70;37.20;;;;;;6173451;28;19929;-52
2022/05/01 13:05:54;;;;;;;;;;;23.40;37.00;;;;;;6175541;28;20226;-50
2022/05/01 13:09:06;;;;;;;;;;;23.50;37.00;;;;;;6152256;28;19973;-49
2022/05/01 13:12:08;;;;;;;;;;;23.70;37.20;;;;;;6168549;28;20253;-50
2022/05/01 13:15:10;;;;;;;;;;;23.40;37.00;;;;;;6173933;28;19928;-50
2022/05/01 13:18:12;;;;;;;;;;;23.50;37.00;;;;;;6174914;28;19987;-49
2022/05/01 13:21:14;;;;;;;;;;;23.60;37.20;;;;;;6173794;28;19932;-48
2022/05/01 13:24:18;;;;;;;;;;;23.60;37.10;;;;;;6170988;28;20147;-50
2022/05/01 13:27:21;;;;;;;;;;;23.60;37.10;;;;;;6168457;28;19931;-48
2022/05/01 13:30:22;;;;;;;;;;;23.60;37.20;;;;;;6175007;28;20322;-51
2022/05/01 13:33:24;;;;;;;;;;;23.50;37.00;;;;;;6171562;28;20056;-52
2022/05/01 13:36:25;;;;;;;;;;;23.80;37.20;;;;;;6174810;28;19984;-49
2022/05/01 13:45:59;;;;;;;;;;;23.70;36.90;;;;;;6165952;28;20647;-49
2022/05/01 13:49:01;;;;;;;;;;;23.60;36.80;;;;;;6174278;28;19925;-48
2022/05/01 13:52:03;;;;;;;;;;;23.60;36.80;;;;;;6174746;28;20040;-51
2022/05/01 13:55:05;;;;;;;;;;;23.70;36.80;;;;;;6176879;28;20092;-51
2022/05/01 13:58:06;;;;;;;;;;;23.60;36.70;;;;;;6175479;28;20345;-49
2022/05/01 14:01:08;;;;;;;;;;;23.60;36.70;;;;;;6170891;28;20063;-48
2022/05/01 14:04:09;;;;;;;;;;;23.70;36.70;;;;;;6156997;28;20456;-47
2022/05/01 14:07:13;;;;;;;;;;;23.60;36.60;;;;;;6171486;28;20130;-47
2022/05/01 14:10:15;;;;;;;;;;;23.70;36.60;;;;;;6168193;28;20709;-50
2022/05/01 14:13:17;;;;;;;;;;;23.40;36.40;;;;;;6163572;28;19936;-48
2022/05/01 14:16:19;;;;;;;;;;;23.70;36.60;;;;;;6159739;28;20349;-48
2022/05/01 14:19:21;;;;;;;;;;;23.70;36.50;;;;;;6162989;28;19947;-52
2022/05/01 14:22:22;;;;;;;;;;;23.70;36.50;;;;;;6159175;28;19929;-48
2022/05/01 14:25:24;;;;;;;;;;;24.00;36.60;;;;;;6178154;28;20307;-50
2022/05/01 14:28:26;;;;;;;;;;;23.80;36.50;;;;;;6171172;28;19925;-48
2022/05/01 14:31:35;;;;;;;;;;;23.70;36.40;;;;;;6169275;28;19929;-50
2022/05/01 14:34:38;;;;;;;;;;;23.60;36.30;;;;;;6177706;28;20511;-52
2022/05/01 14:37:43;;;;;;;;;;;23.60;36.20;;;;;;6169295;28;19929;-51
2022/05/01 14:40:46;;;;;;;;;;;23.80;36.30;;;;;;6172429;28;19929;-49
2022/05/01 14:43:48;;;;;;;;;;;23.70;36.20;;;;;;6168813;28;20709;-49
2022/05/01 14:46:53;;;;;;;;;;;23.80;36.20;;;;;;6175104;28;20449;-50
2022/05/01 14:49:59;;;;;;;;;;;23.70;36.10;;;;;;6153163;28;20323;-50
2022/05/01 14:53:00;;;;;;;;;;;23.90;36.20;;;;;;6172393;28;20258;-47
2022/05/01 14:56:02;;;;;;;;;;;23.90;36.20;;;;;;6166797;28;20324;-48
2022/05/01 15:08:51;;;;;;;;;;;24.00;36.10;;;;;;6169915;28;19928;-47
2022/05/01 15:11:52;;;;;;;;;;;23.90;36.70;;;;;;6169072;28;20543;-50
2022/05/01 15:14:54;;;;;;;;;;;24.00;36.10;;;;;;6162307;28;20387;-50
2022/05/01 15:17:59;;;;;;;;;;;23.90;36.10;;;;;;6169712;28;20472;-48
2022/05/01 15:21:06;;;;;;;;;;;23.80;36.10;;;;;;6155682;28;20283;-50
2022/05/01 15:24:07;;;;;;;;;;;23.60;36.00;;;;;;6175020;28;20007;-50
2022/05/01 15:27:10;;;;;;;;;;;23.80;36.20;;;;;;6171004;28;19925;-48
2022/05/01 15:30:12;;;;;;;;;;;23.80;36.20;;;;;;6171901;28;20053;-50
2022/05/01 15:33:42;;;;;;;;;;;23.80;36.20;;;;;;6175162;28;19995;-50
2022/05/01 15:36:42;;;;;;;;;;;23.80;36.20;;;;;;6146998;28;20019;-48
2022/05/01 15:39:47;;;;;;;;;;;23.90;36.30;;;;;;6157058;28;19959;-51
2022/05/01 15:42:49;;;;;;;;;;;23.70;36.20;;;;;;6172499;28;21334;-50
2022/05/01 15:45:55;;;;;;;;;;;23.80;36.20;;;;;;6154525;28;20055;-50
2022/05/01 15:55:37;;;;;;;;;;;23.80;36.10;;;;;;6163545;28;19929;-51
2022/05/01 15:58:38;;;;;;;;;;;23.70;36.10;;;;;;6168231;28;20655;-49
2022/05/01 16:01:41;;;;;;;;;;;23.70;36.10;;;;;;6159806;28;19956;-50
2022/05/01 16:04:44;;;;;;;;;;;23.80;36.10;;;;;;6169974;28;20295;-48
2022/05/01 16:07:48;;;;;;;;;;;23.80;36.10;;;;;;6160975;28;20238;-47
2022/05/01 16:10:51;;;;;;;;;;;23.70;36.10;;;;;;6150273;28;20092;-47
2022/05/01 16:13:56;;;;;;;;;;;23.80;36.00;;;;;;6167112;28;20137;-50
2022/05/01 16:17:03;;;;;;;;;;;23.90;36.00;;;;;;6172747;28;20203;-47
2022/05/01 16:20:05;;;;;;;;;;;23.90;35.90;;;;;;6179546;28;19936;-54
2022/05/01 16:23:09;;;;;;;;;;;23.80;35.90;;;;;;6185893;28;20055;-51
2022/05/01 16:26:13;;;;;;;;;;;23.80;35.90;;;;;;6190712;28;20048;-54
2022/05/01 16:29:17;;;;;;;;;;;23.80;35.90;;;;;;6179654;28;19929;-53
2022/05/01 16:32:24;;;;;;;;;;;23.80;35.90;;;;;;6184035;28;20003;-52
2022/05/01 16:35:27;;;;;;;;;;;23.80;36.00;;;;;;6181956;28;20865;-49
2022/05/01 16:38:29;;;;;;;;;;;23.70;35.90;;;;;;6189480;28;19936;-51
2022/05/01 16:41:33;;;;;;;;;;;23.80;36.00;;;;;;6152246;28;19933;-51
2022/05/01 16:44:35;;;;;;;;;;;23.70;35.90;;;;;;6175659;28;20785;-49
2022/05/01 16:47:39;;;;;;;;;;;23.70;36.00;;;;;;6182162;28;19933;-52
2022/05/01 16:50:41;;;;;;;;;;;23.80;36.00;;;;;;6183004;28;20036;-50
2022/05/01 16:53:43;;;;;;;;;;;23.70;36.00;;;;;;6184092;28;19925;-53
2022/05/01 16:56:44;;;;;;;;;;;23.70;36.00;;;;;;6186296;28;20010;-50
2022/05/01 16:59:46;;;;;;;;;;;23.70;36.10;;;;;;6186677;28;19936;-49
2022/05/01 17:02:53;;;;;;;;;;;23.70;36.00;;;;;;6189024;28;19928;-51
2022/05/01 17:05:58;;;;;;;;;;;23.80;36.00;;;;;;6181383;28;19927;-53
2022/05/01 17:09:02;;;;;;;;;;;23.80;36.00;;;;;;6183437;28;20656;-48
2022/05/01 17:12:06;;;;;;;;;;;23.80;36.00;;;;;;6177958;28;19929;-52
2022/05/01 17:15:09;;;;;;;;;;;23.80;36.00;;;;;;6159419;28;19929;-52
2022/05/01 17:18:13;;;;;;;;;;;23.70;36.00;;;;;;6174103;28;19929;-48
2022/05/01 17:21:17;;;;;;;;;;;23.70;36.00;;;;;;6180450;28;20144;-52
2022/05/01 17:24:30;;;;;;;;;;;23.70;35.90;;;;;;6179877;28;19983;-53
2022/05/01 17:27:37;;;;;;;;;;;23.80;35.90;;;;;;6176095;28;20045;-52
2022/05/01 17:30:43;;;;;;;;;;;23.90;35.90;;;;;;6160885;28;19929;-52
2022/05/01 17:34:05;;;;;;;;;;;23.90;35.90;;;;;;6167813;28;19922;-54
2022/05/01 17:37:13;;;;;;;;;;;23.80;35.80;;;;;;6169590;28;20688;-54
2022/05/01 17:40:16;;;;;;;;;;;23.80;35.80;;;;;;6169465;28;20040;-51
2022/05/01 17:43:18;;;;;;;;;;;23.90;35.90;;;;;;6181538;28;20776;-52
2022/05/01 17:46:20;;;;;;;;;;;23.90;35.80;;;;;;6185785;28;19929;-51
2022/05/01 17:49:26;;;;;;;;;;;23.90;35.80;;;;;;6189869;28;20009;-50
2022/05/01 17:52:30;;;;;;;;;;;24.00;35.80;;;;;;6179626;28;20056;-52
2022/05/01 17:55:32;;;;;;;;;;;23.80;35.70;;;;;;6178025;28;19975;-50
2022/05/01 17:58:33;;;;;;;;;;;23.90;35.70;;;;;;6180840;28;19933;-52
2022/05/01 18:01:45;;;;;;;;;;;23.90;35.70;;;;;;6185278;28;21242;-53
2022/05/01 18:11:32;;;;;;;;;;;23.80;35.70;;;;;;6177178;28;19925;-51
2022/05/01 18:14:41;;;;;;;;;;;23.80;35.70;;;;;;6168751;28;20443;-48
2022/05/01 18:17:48;;;;;;;;;;;23.90;35.80;;;;;;6170814;28;19929;-52
2022/05/01 18:20:56;;;;;;;;;;;24.10;36.50;;;;;;6161675;28;20016;-48
2022/05/01 18:24:05;;;;;;;;;;;23.90;35.80;;;;;;6162173;28;20157;-52
2022/05/01 18:27:09;;;;;;;;;;;23.90;35.80;;;;;;6166420;28;19968;-50
2022/05/01 18:30:13;;;;;;;;;;;23.80;35.70;;;;;;6152226;28;20142;-47
2022/05/01 18:33:20;;;;;;;;;;;23.90;35.80;;;;;;6176403;28;20043;-49
2022/05/01 18:36:29;;;;;;;;;;;23.80;35.70;;;;;;6156027;28;20045;-49
2022/05/01 18:39:33;;;;;;;;;;;23.80;35.80;;;;;;6176707;28;20775;-48
2022/05/01 18:42:36;;;;;;;;;;;23.80;35.80;;;;;;6167175;28;20039;-52
2022/05/01 18:45:39;;;;;;;;;;;23.60;35.70;;;;;;6184431;28;21299;-53
2022/05/01 18:48:40;;;;;;;;;;;23.70;35.80;;;;;;6188566;28;19937;-57